sensor_id;sensor_type;location;lat;lon;timestamp;temperature;humidity
40556;DHT22;26250;45.422;11.100;2023-05-14T09:58:51;17.40;97.90
40556;DHT22;26250;45.422;11.100;2023-05-14T10:01:18;17.50;97.00
40556;DHT22;26250;45.422;11.100;2023-05-14T10:03:46;17.50;96.60
40556;DHT22;26250;45.422;11.100;2023-05-14T10:06:15;17.50;97.10
40556;DHT22;26250;45.422;11.100;2023-05-14T10:08:45;17.50;97.20
40556;DHT22;26250;45.422;11.100;2023-05-14T10:11:18;17.60;97.20
40556;DHT22;26250;45.422;11.100;2023-05-14T10:16:32;17.70;96.80
40556;DHT22;26250;45.422;11.100;2023-05-14T10:19:10;17.70;96.50
40556;DHT22;26250;45.422;11.100;2023-05-14T10:21:39;17.80;96.60
40556;DHT22;26250;45.422;11.100;2023-05-14T10:24:07;17.90;96.50
40556;DHT22;26250;45.422;11.100;2023-05-14T10:26:35;17.90;96.10
40556;DHT22;26250;45.422;11.100;2023-05-14T10:29:05;17.90;95.60
40556;DHT22;26250;45.422;11.100;2023-05-14T10:31:45;18.00;95.30
40556;DHT22;26250;45.422;11.100;2023-05-14T10:37:00;17.90;95.00
40556;DHT22;26250;45.422;11.100;2023-05-14T10:39:57;17.90;95.40
40556;DHT22;26250;45.422;11.100;2023-05-14T10:42:34;18.00;94.50
40556;DHT22;26250;45.422;11.100;2023-05-14T10:45:04;17.90;94.30
40556;DHT22;26250;45.422;11.100;2023-05-14T10:47:37;17.90;94.70
40556;DHT22;26250;45.422;11.100;2023-05-14T10:50:05;18.00;94.90
40556;DHT22;26250;45.422;11.100;2023-05-14T10:52:33;18.00;94.60
40556;DHT22;26250;45.422;11.100;2023-05-14T10:55:04;17.90;94.50
40556;DHT22;26250;45.422;11.100;2023-05-14T10:57:37;18.00;93.20
40556;DHT22;26250;45.422;11.100;2023-05-14T11:00:05;18.00;94.10
40556;DHT22;26250;45.422;11.100;2023-05-14T11:02:37;18.10;94.50
40556;DHT22;26250;45.422;11.100;2023-05-14T11:05:09;18.20;93.80
40556;DHT22;26250;45.422;11.100;2023-05-14T11:07:42;18.20;94.60
40556;DHT22;26250;45.422;11.100;2023-05-14T11:12:44;18.10;93.00
40556;DHT22;26250;45.422;11.100;2023-05-14T11:15:13;18.20;92.50
40556;DHT22;26250;45.422;11.100;2023-05-14T11:17:45;18.30;92.30
40556;DHT22;26250;45.422;11.100;2023-05-14T11:20:13;18.30;92.60
40556;DHT22;26250;45.422;11.100;2023-05-14T11:22:41;18.30;91.30
40556;DHT22;26250;45.422;11.100;2023-05-14T11:25:10;18.30;91.10
40556;DHT22;26250;45.422;11.100;2023-05-14T11:27:39;18.40;92.30
40556;DHT22;26250;45.422;11.100;2023-05-14T11:30:17;18.40;92.80
40556;DHT22;26250;45.422;11.100;2023-05-14T11:32:46;18.50;92.00
40556;DHT22;26250;45.422;11.100;2023-05-14T11:35:14;18.40;92.60
40556;DHT22;26250;45.422;11.100;2023-05-14T11:37:42;18.40;90.80
40556;DHT22;26250;45.422;11.100;2023-05-14T11:40:14;18.40;90.40
40556;DHT22;26250;45.422;11.100;2023-05-14T11:42:42;18.40;91.80
40556;DHT22;26250;45.422;11.100;2023-05-14T11:45:12;18.40;92.40
40556;DHT22;26250;45.422;11.100;2023-05-14T11:47:40;18.40;91.80
40556;DHT22;26250;45.422;11.100;2023-05-14T11:50:08;18.40;91.30
40556;DHT22;26250;45.422;11.100;2023-05-14T11:52:38;18.40;91.80
40556;DHT22;26250;45.422;11.100;2023-05-14T11:55:09;18.40;92.00
40556;DHT22;26250;45.422;11.100;2023-05-14T11:57:37;18.30;92.10
40556;DHT22;26250;45.422;11.100;2023-05-14T12:00:07;18.30;91.60
40556;DHT22;26250;45.422;11.100;2023-05-14T12:02:35;18.30;92.20
40556;DHT22;26250;45.422;11.100;2023-05-14T12:05:04;18.20;91.60
40556;DHT22;26250;45.422;11.100;2023-05-14T12:07:32;18.20;90.90
40556;DHT22;26250;45.422;11.100;2023-05-14T12:10:01;18.20;90.80
40556;DHT22;26250;45.422;11.100;2023-05-14T12:12:34;18.30;92.40
40556;DHT22;26250;45.422;11.100;2023-05-14T12:15:01;18.40;93.00
40556;DHT22;26250;45.422;11.100;2023-05-14T12:17:27;18.40;92.90
40556;DHT22;26250;45.422;11.100;2023-05-14T12:19:56;18.40;92.90
40556;DHT22;26250;45.422;11.100;2023-05-14T12:22:22;18.40;92.50
40556;DHT22;26250;45.422;11.100;2023-05-14T12:24:57;18.50;93.30
40556;DHT22;26250;45.422;11.100;2023-05-14T12:27:28;18.50;93.10
40556;DHT22;26250;45.422;11.100;2023-05-14T12:30:03;18.50;92.30
40556;DHT22;26250;45.422;11.100;2023-05-14T12:32:50;18.60;93.70
40556;DHT22;26250;45.422;11.100;2023-05-14T12:35:20;18.60;93.50
40556;DHT22;26250;45.422;11.100;2023-05-14T12:37:48;18.60;93.70
40556;DHT22;26250;45.422;11.100;2023-05-14T12:40:15;18.60;91.10
40556;DHT22;26250;45.422;11.100;2023-05-14T12:42:42;18.60;92.60
40556;DHT22;26250;45.422;11.100;2023-05-14T12:45:09;18.60;93.20
40556;DHT22;26250;45.422;11.100;2023-05-14T12:47:36;18.60;93.60
40556;DHT22;26250;45.422;11.100;2023-05-14T12:50:04;18.60;92.40
40556;DHT22;26250;45.422;11.100;2023-05-14T12:52:31;18.60;92.20
40556;DHT22;26250;45.422;11.100;2023-05-14T12:55:06;18.60;93.40
40556;DHT22;26250;45.422;11.100;2023-05-14T12:57:33;18.50;92.40
40556;DHT22;26250;45.422;11.100;2023-05-14T13:00:01;18.40;93.10
40556;DHT22;26250;45.422;11.100;2023-05-14T13:02:32;18.50;92.50
40556;DHT22;26250;45.422;11.100;2023-05-14T13:05:09;18.50;92.70
40556;DHT22;26250;45.422;11.100;2023-05-14T13:07:36;18.50;91.90
40556;DHT22;26250;45.422;11.100;2023-05-14T13:10:03;18.50;92.30
40556;DHT22;26250;45.422;11.100;2023-05-14T13:12:33;18.50;92.90
40556;DHT22;26250;45.422;11.100;2023-05-14T13:15:00;18.50;91.80
40556;DHT22;26250;45.422;11.100;2023-05-14T13:17:27;18.60;92.30
40556;DHT22;26250;45.422;11.100;2023-05-14T13:19:54;18.60;90.10
40556;DHT22;26250;45.422;11.100;2023-05-14T13:22:21;18.60;92.10
40556;DHT22;26250;45.422;11.100;2023-05-14T13:24:47;18.70;91.40
40556;DHT22;26250;45.422;11.100;2023-05-14T13:27:14;18.70;90.70
40556;DHT22;26250;45.422;11.100;2023-05-14T13:29:41;18.60;90.40
40556;DHT22;26250;45.422;11.100;2023-05-14T13:32:11;18.60;89.50
40556;DHT22;26250;45.422;11.100;2023-05-14T13:34:38;18.40;90.10
40556;DHT22;26250;45.422;11.100;2023-05-14T13:37:05;18.30;91.50
40556;DHT22;26250;45.422;11.100;2023-05-14T13:39:32;18.50;92.40
40556;DHT22;26250;45.422;11.100;2023-05-14T13:41:59;18.40;91.30
40556;DHT22;26250;45.422;11.100;2023-05-14T13:44:27;18.30;90.60
40556;DHT22;26250;45.422;11.100;2023-05-14T13:46:53;18.40;90.40
40556;DHT22;26250;45.422;11.100;2023-05-14T13:49:20;18.30;91.80
40556;DHT22;26250;45.422;11.100;2023-05-14T13:51:47;18.40;92.90
40556;DHT22;26250;45.422;11.100;2023-05-14T13:54:14;18.60;92.30
40556;DHT22;26250;45.422;11.100;2023-05-14T13:56:41;18.60;92.10
40556;DHT22;26250;45.422;11.100;2023-05-14T13:59:08;18.60;92.90
40556;DHT22;26250;45.422;11.100;2023-05-14T14:01:36;18.70;92.70
40556;DHT22;26250;45.422;11.100;2023-05-14T14:04:06;18.60;92.70
40556;DHT22;26250;45.422;11.100;2023-05-14T14:06:33;18.70;93.20
40556;DHT22;26250;45.422;11.100;2023-05-14T14:08:59;18.70;92.60
40556;DHT22;26250;45.422;11.100;2023-05-14T14:11:26;18.50;92.40
40556;DHT22;26250;45.422;11.100;2023-05-14T14:13:53;18.50;93.20
40556;DHT22;26250;45.422;11.100;2023-05-14T14:16:20;18.60;93.50
40556;DHT22;26250;45.422;11.100;2023-05-14T14:18:47;18.50;93.20
40556;DHT22;26250;45.422;11.100;2023-05-14T14:21:14;18.40;91.80
40556;DHT22;26250;45.422;11.100;2023-05-14T14:23:47;18.50;92.30
40556;DHT22;26250;45.422;11.100;2023-05-14T14:26:14;18.30;92.00
40556;DHT22;26250;45.422;11.100;2023-05-14T14:28:41;18.30;93.10
40556;DHT22;26250;45.422;11.100;2023-05-14T14:31:08;18.20;92.50
40556;DHT22;26250;45.422;11.100;2023-05-14T14:33:35;18.30;92.90
40556;DHT22;26250;45.422;11.100;2023-05-14T14:36:02;18.30;91.50
40556;DHT22;26250;45.422;11.100;2023-05-14T14:38:29;18.10;92.50
40556;DHT22;26250;45.422;11.100;2023-05-14T14:40:57;18.10;92.70
40556;DHT22;26250;45.422;11.100;2023-05-14T14:43:23;18.10;91.90
40556;DHT22;26250;45.422;11.100;2023-05-14T14:45:50;18.10;91.50
40556;DHT22;26250;45.422;11.100;2023-05-14T14:48:30;18.10;92.10
40556;DHT22;26250;45.422;11.100;2023-05-14T14:50:58;18.10;92.40
40556;DHT22;26250;45.422;11.100;2023-05-14T14:53:25;18.10;92.00
40556;DHT22;26250;45.422;11.100;2023-05-14T14:55:52;18.20;92.70
40556;DHT22;26250;45.422;11.100;2023-05-14T14:58:20;18.10;91.90
40556;DHT22;26250;45.422;11.100;2023-05-14T15:00:49;17.90;93.00
40556;DHT22;26250;45.422;11.100;2023-05-14T15:03:17;18.10;93.20
40556;DHT22;26250;45.422;11.100;2023-05-14T15:05:44;18.10;93.00
40556;DHT22;26250;45.422;11.100;2023-05-14T15:08:12;18.10;93.00
40556;DHT22;26250;45.422;11.100;2023-05-14T15:10:39;18.10;93.70
40556;DHT22;26250;45.422;11.100;2023-05-14T15:13:07;18.20;93.20
40556;DHT22;26250;45.422;11.100;2023-05-14T15:15:37;18.20;93.40
40556;DHT22;26250;45.422;11.100;2023-05-14T15:18:04;18.10;93.40
40556;DHT22;26250;45.422;11.100;2023-05-14T15:20:31;18.00;93.80
40556;DHT22;26250;45.422;11.100;2023-05-14T15:22:59;18.10;93.50
40556;DHT22;26250;45.422;11.100;2023-05-14T15:25:26;18.10;93.70
40556;DHT22;26250;45.422;11.100;2023-05-14T15:27:53;18.20;93.80
40556;DHT22;26250;45.422;11.100;2023-05-14T15:30:20;18.10;93.60
40556;DHT22;26250;45.422;11.100;2023-05-14T15:32:47;18.10;93.80
40556;DHT22;26250;45.422;11.100;2023-05-14T15:35:14;18.10;93.70
40556;DHT22;26250;45.422;11.100;2023-05-14T15:37:42;18.10;93.60
40556;DHT22;26250;45.422;11.100;2023-05-14T15:40:10;18.00;93.80
40556;DHT22;26250;45.422;11.100;2023-05-14T15:42:39;17.90;94.30
40556;DHT22;26250;45.422;11.100;2023-05-14T15:45:12;17.90;94.50
40556;DHT22;26250;45.422;11.100;2023-05-14T15:47:40;17.90;94.90
40556;DHT22;26250;45.422;11.100;2023-05-14T15:50:07;17.90;95.00
40556;DHT22;26250;45.422;11.100;2023-05-14T15:52:34;18.00;95.50
40556;DHT22;26250;45.422;11.100;2023-05-14T15:55:02;18.10;95.60
40556;DHT22;26250;45.422;11.100;2023-05-14T15:57:30;18.10;95.40
40556;DHT22;26250;45.422;11.100;2023-05-14T15:59:57;18.00;95.20
40556;DHT22;26250;45.422;11.100;2023-05-14T16:02:24;17.80;95.30
40556;DHT22;26250;45.422;11.100;2023-05-14T16:04:51;17.80;95.40
40556;DHT22;26250;45.422;11.100;2023-05-14T16:07:18;17.80;95.70
40556;DHT22;26250;45.422;11.100;2023-05-14T16:09:45;17.80;95.90
40556;DHT22;26250;45.422;11.100;2023-05-14T16:12:12;17.70;96.10
40556;DHT22;26250;45.422;11.100;2023-05-14T16:14:39;17.70;96.20
40556;DHT22;26250;45.422;11.100;2023-05-14T16:17:07;17.60;96.40
40556;DHT22;26250;45.422;11.100;2023-05-14T16:19:34;17.70;96.40
40556;DHT22;26250;45.422;11.100;2023-05-14T16:22:01;17.70;96.70
40556;DHT22;26250;45.422;11.100;2023-05-14T16:24:28;17.70;97.00
40556;DHT22;26250;45.422;11.100;2023-05-14T16:26:55;17.70;96.80
40556;DHT22;26250;45.422;11.100;2023-05-14T16:29:22;17.70;97.20
40556;DHT22;26250;45.422;11.100;2023-05-14T16:31:49;17.70;96.70
40556;DHT22;26250;45.422;11.100;2023-05-14T16:34:16;17.70;96.80
40556;DHT22;26250;45.422;11.100;2023-05-14T16:36:43;17.60;96.70
40556;DHT22;26250;45.422;11.100;2023-05-14T16:39:09;17.60;97.00
40556;DHT22;26250;45.422;11.100;2023-05-14T16:41:37;17.60;97.20
40556;DHT22;26250;45.422;11.100;2023-05-14T16:44:03;17.50;97.50
40556;DHT22;26250;45.422;11.100;2023-05-14T16:46:30;17.40;97.50
40556;DHT22;26250;45.422;11.100;2023-05-14T16:48:58;17.40;97.50
40556;DHT22;26250;45.422;11.100;2023-05-14T16:51:24;17.40;97.30
40556;DHT22;26250;45.422;11.100;2023-05-14T16:53:51;17.40;96.60
40556;DHT22;26250;45.422;11.100;2023-05-14T16:56:21;17.40;97.10
40556;DHT22;26250;45.422;11.100;2023-05-14T16:58:48;17.40;96.60
40556;DHT22;26250;45.422;11.100;2023-05-14T17:01:15;17.40;96.30
40556;DHT22;26250;45.422;11.100;2023-05-14T17:03:42;17.30;96.40
40556;DHT22;26250;45.422;11.100;2023-05-14T17:06:10;17.30;96.70
40556;DHT22;26250;45.422;11.100;2023-05-14T17:08:37;17.20;96.70
40556;DHT22;26250;45.422;11.100;2023-05-14T17:11:04;17.20;97.20
40556;DHT22;26250;45.422;11.100;2023-05-14T17:13:32;17.20;97.60
40556;DHT22;26250;45.422;11.100;2023-05-14T17:15:59;17.20;97.20
40556;DHT22;26250;45.422;11.100;2023-05-14T17:18:26;17.20;97.90
40556;DHT22;26250;45.422;11.100;2023-05-14T17:20:53;17.30;97.90
40556;DHT22;26250;45.422;11.100;2023-05-14T17:23:20;17.40;97.80
40556;DHT22;26250;45.422;11.100;2023-05-14T17:25:47;17.40;97.40
40556;DHT22;26250;45.422;11.100;2023-05-14T17:28:13;17.40;97.80
40556;DHT22;26250;45.422;11.100;2023-05-14T17:30:40;17.40;97.50
40556;DHT22;26250;45.422;11.100;2023-05-14T17:33:07;17.50;97.10
40556;DHT22;26250;45.422;11.100;2023-05-14T17:35:34;17.50;97.70
40556;DHT22;26250;45.422;11.100;2023-05-14T17:38:02;17.50;97.80
40556;DHT22;26250;45.422;11.100;2023-05-14T17:40:29;17.50;96.70
40556;DHT22;26250;45.422;11.100;2023-05-14T17:42:56;17.40;98.00
40556;DHT22;26250;45.422;11.100;2023-05-14T17:45:22;17.40;97.40
40556;DHT22;26250;45.422;11.100;2023-05-14T17:47:50;17.40;97.40
40556;DHT22;26250;45.422;11.100;2023-05-14T17:50:17;17.40;97.60
40556;DHT22;26250;45.422;11.100;2023-05-14T17:52:44;17.30;98.30
40556;DHT22;26250;45.422;11.100;2023-05-14T17:55:13;17.30;97.40
40556;DHT22;26250;45.422;11.100;2023-05-14T17:57:39;17.20;97.70
40556;DHT22;26250;45.422;11.100;2023-05-14T18:00:07;17.10;97.90
40556;DHT22;26250;45.422;11.100;2023-05-14T18:02:38;17.10;97.60
40556;DHT22;26250;45.422;11.100;2023-05-14T18:05:05;17.00;97.80
40556;DHT22;26250;45.422;11.100;2023-05-14T18:07:32;17.00;97.60
40556;DHT22;26250;45.422;11.100;2023-05-14T18:10:00;17.00;98.40
40556;DHT22;26250;45.422;11.100;2023-05-14T18:12:27;16.90;97.80
40556;DHT22;26250;45.422;11.100;2023-05-14T18:14:54;17.00;98.30
40556;DHT22;26250;45.422;11.100;2023-05-14T18:17:21;16.90;98.10
40556;DHT22;26250;45.422;11.100;2023-05-14T18:19:48;17.00;98.40
40556;DHT22;26250;45.422;11.100;2023-05-14T18:22:15;17.00;99.10
40556;DHT22;26250;45.422;11.100;2023-05-14T18:24:42;17.10;98.30
40556;DHT22;26250;45.422;11.100;2023-05-14T18:27:10;17.00;98.50
40556;DHT22;26250;45.422;11.100;2023-05-14T18:29:37;17.00;98.30
40556;DHT22;26250;45.422;11.100;2023-05-14T18:32:04;17.00;98.00
40556;DHT22;26250;45.422;11.100;2023-05-14T18:34:31;17.00;97.80
40556;DHT22;26250;45.422;11.100;2023-05-14T18:36:58;16.90;97.60
40556;DHT22;26250;45.422;11.100;2023-05-14T18:39:25;16.90;97.70
40556;DHT22;26250;45.422;11.100;2023-05-14T18:41:51;16.80;97.70
40556;DHT22;26250;45.422;11.100;2023-05-14T18:44:18;16.90;97.90
40556;DHT22;26250;45.422;11.100;2023-05-14T18:46:45;16.90;97.80
40556;DHT22;26250;45.422;11.100;2023-05-14T18:49:12;16.80;97.80
40556;DHT22;26250;45.422;11.100;2023-05-14T18:51:40;16.80;98.00
40556;DHT22;26250;45.422;11.100;2023-05-14T18:54:07;16.60;98.10
40556;DHT22;26250;45.422;11.100;2023-05-14T18:56:35;16.70;97.90
40556;DHT22;26250;45.422;11.100;2023-05-14T18:59:02;16.70;97.80
40556;DHT22;26250;45.422;11.100;2023-05-14T19:01:29;16.70;97.90
40556;DHT22;26250;45.422;11.100;2023-05-14T19:03:57;16.70;97.90
40556;DHT22;26250;45.422;11.100;2023-05-14T19:06:24;16.70;97.80
40556;DHT22;26250;45.422;11.100;2023-05-14T19:08:51;16.80;97.60
40556;DHT22;26250;45.422;11.100;2023-05-14T19:11:18;16.80;97.50
40556;DHT22;26250;45.422;11.100;2023-05-14T19:13:45;16.80;97.30
40556;DHT22;26250;45.422;11.100;2023-05-14T19:16:13;16.60;97.90
40556;DHT22;26250;45.422;11.100;2023-05-14T19:18:41;16.60;98.10
40556;DHT22;26250;45.422;11.100;2023-05-14T19:21:07;16.50;98.10
40556;DHT22;26250;45.422;11.100;2023-05-14T19:23:34;16.50;98.20
40556;DHT22;26250;45.422;11.100;2023-05-14T19:26:01;16.50;98.20
40556;DHT22;26250;45.422;11.100;2023-05-14T19:28:29;16.50;97.80
40556;DHT22;26250;45.422;11.100;2023-05-14T19:30:56;16.50;98.00
40556;DHT22;26250;45.422;11.100;2023-05-14T19:33:23;16.50;97.70
40556;DHT22;26250;45.422;11.100;2023-05-14T19:35:51;16.50;98.80
40556;DHT22;26250;45.422;11.100;2023-05-14T19:38:18;16.60;99.90
40556;DHT22;26250;45.422;11.100;2023-05-14T19:40:45;16.60;99.90
40556;DHT22;26250;45.422;11.100;2023-05-14T19:43:12;16.70;99.90
40556;DHT22;26250;45.422;11.100;2023-05-14T19:45:39;16.70;99.90
40556;DHT22;26250;45.422;11.100;2023-05-14T19:48:08;16.70;98.90
40556;DHT22;26250;45.422;11.100;2023-05-14T19:50:35;16.70;98.10
40556;DHT22;26250;45.422;11.100;2023-05-14T19:53:07;16.60;98.00
40556;DHT22;26250;45.422;11.100;2023-05-14T19:55:36;16.60;97.80
40556;DHT22;26250;45.422;11.100;2023-05-14T19:58:06;16.60;97.80
40556;DHT22;26250;45.422;11.100;2023-05-14T20:00:33;16.40;98.60
40556;DHT22;26250;45.422;11.100;2023-05-14T20:03:00;16.10;98.70
40556;DHT22;26250;45.422;11.100;2023-05-14T20:05:28;16.20;98.80
40556;DHT22;26250;45.422;11.100;2023-05-14T20:07:54;16.20;98.40
40556;DHT22;26250;45.422;11.100;2023-05-14T20:10:21;16.20;98.50
40556;DHT22;26250;45.422;11.100;2023-05-14T20:12:49;16.30;98.30
40556;DHT22;26250;45.422;11.100;2023-05-14T20:15:16;16.20;98.30
40556;DHT22;26250;45.422;11.100;2023-05-14T20:17:43;16.20;98.70
40556;DHT22;26250;45.422;11.100;2023-05-14T20:20:09;16.00;99.10
40556;DHT22;26250;45.422;11.100;2023-05-14T20:22:37;16.20;98.70
40556;DHT22;26250;45.422;11.100;2023-05-14T20:25:05;16.20;98.50
40556;DHT22;26250;45.422;11.100;2023-05-14T20:27:33;16.20;98.80
40556;DHT22;26250;45.422;11.100;2023-05-14T20:29:59;16.20;98.60
40556;DHT22;26250;45.422;11.100;2023-05-14T20:32:26;16.20;98.70
40556;DHT22;26250;45.422;11.100;2023-05-14T20:34:53;16.30;98.70
40556;DHT22;26250;45.422;11.100;2023-05-14T20:37:20;16.30;98.90
40556;DHT22;26250;45.422;11.100;2023-05-14T20:39:50;16.30;98.60
40556;DHT22;26250;45.422;11.100;2023-05-14T20:42:17;16.30;98.60
40556;DHT22;26250;45.422;11.100;2023-05-14T20:44:44;16.30;98.90
